Aérodrome :
LOGIN :

S'inscrire | Disclaimer

   EN    FR    IT 

 










Légende :    VFR   VFR Marginal   IFR   IFR Intensif   IFR Très Intensif
Visi : 
Plafond : 
>= 8 km
>= 3000ft
5 à 8 km
1000 à 3000 ft
1500m à 5 km
500 à 1000 ft
800 à 1500m
200 à 500 ft
< 800m
< 200 ft
Symboles :   Orages  Brouillard  Fortes neiges  Fortes précipitations  Vent > 20 kt
SIGMETs :   Divers  Orages  Givrage  Turbulence  Onde Orograph.  Cendres Volcan.






- Altitude de l'aérodrome : 458 ft


LFSI - St-Dizier

DERNIER METAR :
  • 200330Z AUTO 09003KT 7000 NSC 03/02 Q1017

METARs EXPIRÉS :
  • 200300Z AUTO 09004KT 8000 NSC 03/02 Q1017
  • 200230Z AUTO 10004KT 8000 NSC 03/02 Q1017
  • 200200Z AUTO 11004KT 8000 NSC 04/03 Q1017
  • 200130Z AUTO 10004KT 8000 NSC 04/03 Q1017
  • 200100Z AUTO 10004KT 8000 NSC 05/04 Q1017

TAF TAF LFSI
Valide du 20 à 03h jusqu'au 21 à 03h UTC


200200Z 2003/2103 VRB02KT 8000 NSC
BECMG 2003/2005 4000 BR
PROB30
TEMPO 2003/2006 0400 FG VV///
BECMG 2007/2009 9999 NSW SCT040
TEMPO 2014/2018 4000 SHRA BKN040TCU



MET'MAP, la Météo Aéronautique d'un coup d'oeil ! - Copyright ORBIFLY Décembre 2007 - Disclaimer

ORBIFLY MET'MAP TEAM :

Programmation & Développement : Alexandra Zaïnal
Sur une idée originale de : Baudouin d'Aumeries
Assistance à la programmation : Marc-Olivier Méhu
Soutien technique & logistique : Manuel Goepfert

Contact : metmap@orbifly.com




SOURCES & CREDITS :

   NOAA